Richmond, Missouri
Current Conditions -  °F | °C
As of 10:55 PM on Wednesday 26 Nov 2014 (Local Time) from KGPH Reporting Station
Overcast Overcast  
Wind Chill: 18°   Ceiling: 1700
Heat Index: 30°   Visibility: 10mi
Dew Point: 25°   Wind: 17mph
Humidity: 80%   Direction: 320°NW
Pressure: 30.37"   Gusts: 24mph
Location:  39.28°N, 93.98°W
Report Text: KGPH 270455Z AUTO 32015G21KT 10SM OVC017 M01/M04 A3037 RMK AO2
Loading
Personal Weather Stations






























Interactive Weather Map New forecast layout! Learn more

10-Day Weather Forecast

Advertisements
Track Severe Weather on mobile